Hunting Creek, North Carolina
Current Conditions -  °F | °C
As of 1:55 AM on Sunday 26 Oct 2014 (Local Time) from KUKF Reporting Station
Clear Clear  
Wind Chill: 61°   Ceiling: Unl
Heat Index: 61°   Visibility: 10mi
Dew Point: 50°   Wind: 10mph
Humidity: 68%   Direction: 260°W
Pressure: 29.97"   Gusts: 16mph
Location:  36.1997°N, 81.0764°W
Report Text: KUKF 260555Z AUTO 26009G14KT 10SM CLR 16/10 A2997 RMK AO2
Loading
Personal Weather Stations






























Interactive Weather Map
Tropical Storm Tracking
New forecast layout! Learn more

10-Day Weather Forecast

Advertisements
Track Severe Weather on mobile